Terminal Aerodrome Forecast
Issued by NWS Lake Charles, LA

Home | Current Version | Previous Version | Text Only | Print | Product List | Glossary On
Versions: 1 2 3 4 5 6 7 8 9 10 11 12 13
000
FTUS44 KLCH 290520
TAFBPT
TAF
KBPT 290520Z 2906/3006 VRB03KT P6SM SKC
     FM291100 33003KT 3SM BR SKC
     FM291300 33005KT P6SM BKN015
     FM291500 VRB06KT P6SM SCT030
     FM292100 16007KT P6SM VCTS SCT045CB
     FM300000 VRB03KT P6SM SCT070=

USA.gov is the U.S. government's official web portal to all federal, state and local government web resources and services.